createdAt,value
2023-08-13T00:00:29.227Z,19.98
2023-08-13T00:05:30.754Z,20.01
2023-08-13T00:10:32.285Z,19.97
2023-08-13T00:15:33.755Z,20.06
2023-08-13T00:20:35.830Z,20.00
2023-08-13T00:25:37.348Z,20.00
2023-08-13T00:30:38.877Z,20.01
2023-08-13T00:35:40.415Z,19.94
2023-08-13T00:40:41.895Z,19.96
2023-08-13T00:45:44.345Z,19.89
2023-08-13T00:50:46.729Z,19.90
2023-08-13T00:55:48.302Z,19.88
2023-08-13T01:00:49.833Z,19.89
2023-08-13T01:05:58.330Z,19.87
2023-08-13T01:11:26.642Z,19.79
2023-08-13T01:16:28.913Z,19.72
2023-08-13T01:21:30.430Z,19.70
2023-08-13T01:26:43.594Z,19.66
2023-08-13T01:31:49.247Z,19.61
2023-08-13T01:36:50.827Z,19.57
2023-08-13T01:41:54.482Z,19.44
2023-08-13T01:46:56.004Z,19.51
2023-08-13T01:51:57.472Z,19.51
2023-08-13T01:56:58.949Z,19.43
2023-08-13T02:02:00.512Z,19.33
2023-08-13T02:07:01.999Z,19.38
2023-08-13T02:12:03.673Z,19.29
2023-08-13T02:17:05.201Z,19.23
2023-08-13T02:22:07.400Z,19.23
2023-08-13T02:27:08.912Z,19.22
2023-08-13T02:32:10.679Z,19.21
2023-08-13T02:37:12.303Z,19.24
2023-08-13T02:42:13.986Z,19.25
2023-08-13T02:47:15.787Z,19.24
2023-08-13T02:52:17.915Z,19.19
2023-08-13T02:57:19.517Z,19.19
2023-08-13T03:02:21.131Z,19.12
2023-08-13T03:07:22.644Z,19.13
2023-08-13T03:12:24.098Z,19.16
2023-08-13T03:17:25.680Z,19.13
2023-08-13T03:22:27.208Z,19.13
2023-08-13T03:27:28.633Z,19.07
2023-08-13T03:32:30.237Z,18.97
2023-08-13T03:37:31.762Z,18.99
2023-08-13T03:42:33.518Z,19.05
2023-08-13T03:47:35.037Z,18.88
2023-08-13T03:52:36.528Z,18.96
2023-08-13T03:57:38.033Z,19.00
2023-08-13T04:02:40.610Z,18.96
2023-08-13T04:07:42.693Z,18.92
2023-08-13T04:12:44.185Z,18.77
2023-08-13T04:17:45.721Z,18.71
2023-08-13T04:22:47.262Z,18.75
2023-08-13T04:27:48.675Z,18.96
2023-08-13T04:32:57.981Z,19.01
2023-08-13T04:37:59.701Z,19.16
2023-08-13T04:43:01.355Z,19.22
2023-08-13T04:48:03.280Z,19.43
2023-08-13T04:53:05.144Z,19.54
2023-08-13T04:58:07.257Z,19.80
2023-08-13T05:03:08.711Z,20.00
2023-08-13T05:08:10.216Z,20.44
2023-08-13T05:13:11.766Z,20.72
2023-08-13T05:18:13.316Z,20.79
2023-08-13T05:23:14.811Z,20.99
2023-08-13T05:28:16.269Z,20.91
2023-08-13T05:33:17.770Z,20.90
2023-08-13T05:38:19.225Z,21.03
2023-08-13T05:43:20.807Z,21.03
2023-08-13T05:48:22.289Z,21.12
2023-08-13T05:53:24.520Z,21.34
2023-08-13T05:58:26.147Z,21.61
2023-08-13T06:03:29.244Z,21.87
2023-08-13T06:08:30.944Z,22.07
2023-08-13T06:13:32.498Z,22.33
2023-08-13T06:18:35.544Z,22.65
2023-08-13T06:23:38.113Z,23.12
2023-08-13T06:28:39.662Z,23.11
2023-08-13T06:33:41.128Z,23.25
2023-08-13T06:38:42.593Z,23.65
2023-08-13T06:43:44.045Z,24.03
2023-08-13T06:48:45.565Z,24.57
2023-08-13T06:53:47.161Z,25.04
2023-08-13T06:58:48.624Z,25.44
2023-08-13T07:03:50.102Z,25.80
2023-08-13T07:08:52.234Z,26.11
2023-08-13T07:13:53.814Z,26.60
2023-08-13T07:18:55.316Z,26.94
2023-08-13T07:23:56.780Z,26.73
2023-08-13T07:28:58.217Z,26.63
2023-08-13T07:33:59.740Z,26.35
2023-08-13T07:39:01.258Z,26.22
2023-08-13T07:44:03.407Z,26.14
2023-08-13T07:49:05.178Z,26.26
2023-08-13T07:54:06.622Z,26.60
2023-08-13T07:59:08.132Z,26.88
2023-08-13T08:04:10.075Z,26.99
2023-08-13T08:09:11.537Z,27.06
2023-08-13T08:14:13.055Z,27.21
2023-08-13T08:19:14.765Z,27.50
2023-08-13T08:24:16.221Z,27.96
2023-08-13T08:29:17.765Z,28.35
2023-08-13T08:34:19.200Z,28.86
2023-08-13T08:39:20.680Z,29.20
2023-08-13T08:44:22.999Z,29.29
2023-08-13T08:49:26.108Z,29.28
2023-08-13T08:54:27.608Z,29.34
2023-08-13T08:59:29.122Z,29.79
2023-08-13T09:04:30.644Z,30.20
2023-08-13T09:09:32.578Z,30.55
2023-08-13T09:14:34.303Z,30.24
2023-08-13T09:19:35.757Z,30.39
2023-08-13T09:24:39.233Z,30.85
2023-08-13T09:29:40.883Z,31.20
2023-08-13T09:34:42.357Z,31.60
2023-08-13T09:39:43.854Z,31.87
2023-08-13T09:44:45.729Z,32.05
2023-08-13T09:49:47.661Z,32.24
2023-08-13T09:54:53.789Z,32.45
2023-08-13T09:59:56.497Z,32.36
2023-08-13T10:04:58.990Z,32.61
2023-08-13T10:10:08.245Z,32.34
2023-08-13T10:15:10.744Z,32.00
2023-08-13T10:20:12.594Z,31.98
2023-08-13T10:25:38.879Z,31.72
2023-08-13T10:30:40.473Z,31.27
2023-08-13T10:35:43.348Z,31.24
2023-08-13T10:40:59.765Z,31.51
2023-08-13T10:46:05.059Z,31.43
2023-08-13T10:51:06.631Z,31.19
2023-08-13T10:56:08.134Z,31.52
2023-08-13T11:01:14.956Z,31.36
2023-08-13T11:06:16.961Z,31.38
2023-08-13T11:11:19.835Z,31.31
2023-08-13T11:16:21.402Z,31.42
2023-08-13T11:21:25.201Z,31.69
2023-08-13T11:26:26.725Z,32.06
2023-08-13T11:31:28.234Z,31.89
2023-08-13T11:36:29.781Z,31.70
2023-08-13T11:41:31.295Z,31.98
2023-08-13T11:46:58.427Z,32.69
2023-08-13T11:51:59.959Z,33.13
2023-08-13T11:57:02.436Z,32.73
2023-08-13T12:02:04.075Z,32.39
2023-08-13T12:07:10.379Z,32.18
2023-08-13T12:12:11.853Z,32.36
2023-08-13T12:17:13.872Z,31.87
2023-08-13T12:22:15.682Z,31.76
2023-08-13T12:27:17.965Z,32.21
2023-08-13T12:32:19.428Z,32.08
2023-08-13T12:37:20.935Z,31.69
2023-08-13T12:42:23.053Z,31.48
2023-08-13T12:47:24.575Z,31.36
2023-08-13T12:52:26.525Z,31.13
2023-08-13T12:57:28.388Z,30.94
2023-08-13T13:02:30.446Z,30.88
2023-08-13T13:07:32.168Z,30.93
2023-08-13T13:12:33.792Z,31.14
2023-08-13T13:17:35.311Z,31.34
2023-08-13T13:22:37.190Z,31.71
2023-08-13T13:27:39.611Z,31.32
2023-08-13T13:32:41.714Z,31.93
2023-08-13T13:37:43.320Z,32.50
2023-08-13T13:42:45.008Z,31.73
2023-08-13T13:47:46.882Z,31.91
2023-08-13T13:52:49.133Z,32.57
2023-08-13T13:57:50.843Z,32.85
2023-08-13T14:02:52.421Z,32.33
2023-08-13T14:07:53.982Z,31.94
2023-08-13T14:12:55.460Z,32.10
2023-08-13T14:17:56.958Z,32.02
2023-08-13T14:22:58.468Z,31.70
2023-08-13T14:27:59.953Z,31.20
2023-08-13T14:33:01.509Z,31.09
2023-08-13T14:38:02.983Z,30.84
2023-08-13T14:43:04.666Z,30.58
2023-08-13T14:48:06.621Z,30.49
2023-08-13T14:53:08.193Z,30.43
2023-08-13T14:58:09.801Z,30.24
2023-08-13T15:03:11.385Z,29.80
2023-08-13T15:08:13.181Z,29.54
2023-08-13T15:13:14.812Z,29.48
2023-08-13T15:18:16.423Z,29.22
2023-08-13T15:23:19.162Z,29.16
2023-08-13T15:28:20.642Z,29.23
2023-08-13T15:33:24.191Z,29.12
2023-08-13T15:38:26.953Z,29.09
2023-08-13T15:43:28.489Z,29.02
2023-08-13T15:48:29.983Z,28.82
2023-08-13T15:53:31.691Z,28.74
2023-08-13T15:58:33.169Z,28.67
2023-08-13T16:03:34.659Z,28.56
2023-08-13T16:08:36.233Z,28.38
2023-08-13T16:13:41.193Z,28.29
2023-08-13T16:18:42.873Z,28.15
2023-08-13T16:23:45.320Z,27.97
2023-08-13T16:28:46.777Z,27.82
2023-08-13T16:33:48.494Z,27.72
2023-08-13T16:38:50.062Z,27.56
2023-08-13T16:43:51.506Z,27.42
2023-08-13T16:48:53.069Z,27.25
2023-08-13T16:53:54.742Z,27.11
2023-08-13T16:58:56.224Z,26.96
2023-08-13T17:03:57.847Z,26.79
2023-08-13T17:09:00.915Z,26.55
2023-08-13T17:14:02.408Z,26.44
2023-08-13T17:19:04.030Z,26.26
2023-08-13T17:24:06.737Z,26.12
2023-08-13T17:29:08.204Z,25.96
2023-08-13T17:34:11.574Z,25.72
2023-08-13T17:39:13.115Z,25.54
2023-08-13T17:44:14.619Z,25.32
2023-08-13T17:49:16.166Z,25.10
2023-08-13T17:54:18.362Z,24.88
2023-08-13T17:59:19.866Z,24.62
2023-08-13T18:04:21.340Z,24.30
2023-08-13T18:09:22.926Z,24.07
2023-08-13T18:14:24.534Z,23.84
2023-08-13T18:19:26.344Z,23.58
2023-08-13T18:24:27.776Z,23.40
2023-08-13T18:29:29.252Z,23.16
2023-08-13T18:34:30.841Z,22.82
2023-08-13T18:39:34.537Z,22.57
2023-08-13T18:44:35.993Z,22.34
2023-08-13T18:49:37.421Z,22.29
2023-08-13T18:54:39.274Z,22.01
2023-08-13T18:59:40.766Z,21.91
2023-08-13T19:04:42.338Z,21.70
2023-08-13T19:09:44.414Z,21.48
2023-08-13T19:14:45.931Z,21.25
2023-08-13T19:19:47.393Z,21.09
2023-08-13T19:24:48.948Z,20.93
2023-08-13T19:29:50.549Z,20.89
2023-08-13T19:34:52.004Z,20.59
2023-08-13T19:39:53.451Z,20.60
2023-08-13T19:44:54.952Z,20.53
2023-08-13T19:49:58.346Z,20.37
2023-08-13T19:55:00.118Z,20.26
2023-08-13T20:00:01.613Z,20.12
2023-08-13T20:05:03.121Z,19.98
2023-08-13T20:10:04.870Z,19.77
2023-08-13T20:15:06.947Z,19.64
2023-08-13T20:20:09.256Z,19.47
2023-08-13T20:25:10.769Z,19.35
2023-08-13T20:30:12.391Z,19.14
2023-08-13T20:35:13.875Z,19.05
2023-08-13T20:40:15.435Z,18.84
2023-08-13T20:45:17.117Z,18.71
2023-08-13T20:50:19.042Z,18.69
2023-08-13T20:55:21.630Z,18.53
2023-08-13T21:00:23.381Z,18.37
2023-08-13T21:05:24.938Z,18.38
2023-08-13T21:10:26.508Z,18.27
2023-08-13T21:15:27.988Z,18.12
2023-08-13T21:20:30.550Z,18.12
2023-08-13T21:25:32.054Z,17.96
2023-08-13T21:30:33.522Z,17.91
2023-08-13T21:35:35.020Z,17.79
2023-08-13T21:40:36.514Z,17.75
2023-08-13T21:45:38.097Z,17.80
2023-08-13T21:50:39.548Z,17.71
2023-08-13T21:55:41.030Z,17.77
2023-08-13T22:00:42.488Z,17.80
2023-08-13T22:05:44.047Z,17.81
2023-08-13T22:10:46.594Z,17.73
2023-08-13T22:15:48.159Z,17.69
2023-08-13T22:20:49.882Z,17.69
2023-08-13T22:25:52.353Z,17.67
2023-08-13T22:30:55.129Z,17.63
2023-08-13T22:35:56.597Z,17.61
2023-08-13T22:40:58.124Z,17.52
2023-08-13T22:45:59.640Z,17.52
2023-08-13T22:51:01.120Z,17.55
2023-08-13T22:56:02.585Z,17.58
2023-08-13T23:01:04.116Z,17.58
2023-08-13T23:06:05.602Z,17.56
2023-08-13T23:11:07.042Z,17.57
2023-08-13T23:16:08.631Z,17.61
2023-08-13T23:21:10.076Z,17.66
2023-08-13T23:26:11.643Z,17.72
2023-08-13T23:31:13.160Z,17.67
2023-08-13T23:36:14.633Z,17.69
2023-08-13T23:41:16.130Z,17.61
2023-08-13T23:46:17.620Z,17.47
2023-08-13T23:51:19.301Z,17.50
2023-08-13T23:56:20.741Z,17.43
